createdAt,value
2018-08-19T00:02:46.797Z,66.59
2018-08-19T00:05:52.038Z,66.11
2018-08-19T00:09:01.578Z,66.07
2018-08-19T00:12:06.512Z,66.35
2018-08-19T00:15:11.487Z,66.23
2018-08-19T00:18:16.404Z,66.92
2018-08-19T00:21:21.305Z,66.91
2018-08-19T00:24:26.217Z,66.68
2018-08-19T00:27:31.148Z,66.97
2018-08-19T00:30:36.084Z,66.35
2018-08-19T00:33:41.016Z,66.86
2018-08-19T00:36:45.909Z,66.55
2018-08-19T00:39:52.128Z,66.64
2018-08-19T00:42:57.369Z,67.18
2018-08-19T00:46:13.080Z,67.31
2018-08-19T00:49:17.989Z,66.59
2018-08-19T00:52:22.888Z,66.84
2018-08-19T00:55:31.005Z,68.07
2018-08-19T00:58:37.585Z,67.50
2018-08-19T01:01:44.044Z,67.01
2018-08-19T01:04:49.898Z,68.40
2018-08-19T01:07:54.788Z,68.52
2018-08-19T01:10:59.721Z,68.00
2018-08-19T01:14:07.508Z,68.52
2018-08-19T01:17:12.413Z,68.93
2018-08-19T01:20:19.336Z,68.77
2018-08-19T01:23:24.270Z,68.63
2018-08-19T01:26:32.468Z,68.93
2018-08-19T01:29:42.748Z,68.55
2018-08-19T01:32:47.757Z,69.49
2018-08-19T01:35:52.684Z,69.37
2018-08-19T01:38:57.758Z,69.86
2018-08-19T01:42:02.721Z,68.89
2018-08-19T01:45:08.633Z,70.05
2018-08-19T01:48:13.508Z,69.46
2018-08-19T01:51:18.425Z,69.42
2018-08-19T01:54:23.877Z,70.42
2018-08-19T01:57:34.550Z,70.56
2018-08-19T02:00:39.500Z,69.80
2018-08-19T02:03:45.013Z,70.00
2018-08-19T02:06:49.964Z,69.67
2018-08-19T02:10:03.154Z,69.99
2018-08-19T02:13:08.045Z,71.09
2018-08-19T02:16:12.984Z,70.17
2018-08-19T02:19:17.933Z,70.05
2018-08-19T02:22:22.833Z,70.91
2018-08-19T02:25:36.053Z,70.19
2018-08-19T02:28:40.941Z,71.47
2018-08-19T02:31:45.829Z,70.44
2018-08-19T02:34:50.757Z,70.34
2018-08-19T02:37:55.689Z,71.21
2018-08-19T02:41:00.637Z,70.39
2018-08-19T02:44:05.869Z,70.73
2018-08-19T02:47:10.784Z,71.00
2018-08-19T02:50:28.656Z,71.62
2018-08-19T02:53:33.589Z,71.61
2018-08-19T02:56:38.626Z,71.57
2018-08-19T02:59:43.552Z,70.97
2018-08-19T03:02:48.432Z,72.04
2018-08-19T03:05:55.861Z,71.87
2018-08-19T03:09:00.802Z,72.77
2018-08-19T03:12:08.734Z,71.84
2018-08-19T03:15:14.894Z,71.92
2018-08-19T03:18:19.746Z,72.98
2018-08-19T03:21:24.709Z,72.42
2018-08-19T03:24:29.622Z,71.79
2018-08-19T03:27:34.504Z,72.28
2018-08-19T03:30:45.540Z,73.26
2018-08-19T03:33:50.450Z,72.30
2018-08-19T03:36:56.377Z,73.01
2018-08-19T03:40:01.257Z,72.60
2018-08-19T03:43:06.193Z,73.08
2018-08-19T03:46:16.837Z,73.08
2018-08-19T03:49:22.544Z,72.19
2018-08-19T03:52:27.465Z,72.20
2018-08-19T03:55:33.005Z,72.71
2018-08-19T03:58:37.888Z,73.41
2018-08-19T04:01:44.760Z,72.61
2018-08-19T04:04:49.653Z,73.96
2018-08-19T04:07:54.549Z,73.65
2018-08-19T04:10:59.468Z,73.52
2018-08-19T04:14:19.261Z,73.09
2018-08-19T04:17:24.182Z,74.30
2018-08-19T04:20:29.061Z,73.91
2018-08-19T04:23:34.474Z,74.24
2018-08-19T04:26:39.357Z,74.14
2018-08-19T04:29:44.277Z,73.89
2018-08-19T04:32:49.205Z,73.42
2018-08-19T04:35:54.092Z,73.42
2018-08-19T04:38:58.992Z,73.73
2018-08-19T04:42:03.929Z,73.84
2018-08-19T04:45:08.846Z,74.12
2018-08-19T04:48:13.740Z,74.46
2018-08-19T04:51:18.630Z,74.10
2018-08-19T04:54:23.551Z,74.27
2018-08-19T04:57:28.457Z,74.30
2018-08-19T05:00:33.357Z,74.10
2018-08-19T05:03:38.281Z,74.62
2018-08-19T05:06:43.161Z,73.74
2018-08-19T05:09:48.080Z,73.15
2018-08-19T05:12:53.225Z,74.51
2018-08-19T05:15:59.780Z,73.93
2018-08-19T05:19:04.847Z,73.87
2018-08-19T05:22:17.416Z,74.83
2018-08-19T05:25:30.322Z,74.47
2018-08-19T05:28:35.225Z,74.42
2018-08-19T05:31:44.100Z,73.19
2018-08-19T05:34:49.021Z,72.69
2018-08-19T05:37:54.751Z,72.83
2018-08-19T05:41:00.670Z,71.52
2018-08-19T05:44:05.581Z,70.49
2018-08-19T05:47:11.822Z,70.80
2018-08-19T05:50:16.713Z,70.28
2018-08-19T05:53:21.871Z,69.43
2018-08-19T05:56:26.843Z,69.61
2018-08-19T05:59:31.769Z,69.10
2018-08-19T06:02:41.517Z,68.03
2018-08-19T06:05:46.414Z,67.88
2018-08-19T06:08:52.661Z,68.23
2018-08-19T06:11:57.582Z,66.93
2018-08-19T06:15:02.579Z,66.11
2018-08-19T06:18:08.332Z,65.09
2018-08-19T06:21:13.297Z,65.17
2018-08-19T06:24:20.433Z,64.04
2018-08-19T06:27:29.937Z,64.03
2018-08-19T06:30:34.877Z,61.95
2018-08-19T06:33:39.807Z,61.32
2018-08-19T06:36:44.725Z,62.12
2018-08-19T06:39:50.741Z,62.25
2018-08-19T06:42:55.671Z,62.44
2018-08-19T06:46:00.597Z,59.76
2018-08-19T06:49:12.065Z,59.11
2018-08-19T06:52:17.243Z,57.51
2018-08-19T06:55:22.374Z,58.47
2018-08-19T06:58:27.401Z,55.66
2018-08-19T07:01:32.360Z,56.69
2018-08-19T07:04:45.987Z,55.35
2018-08-19T07:07:50.961Z,54.41
2018-08-19T07:10:55.984Z,54.04
2018-08-19T07:14:00.941Z,49.96
2018-08-19T07:17:06.181Z,47.61
2018-08-19T07:20:11.125Z,48.29
2018-08-19T07:23:16.064Z,45.59
2018-08-19T07:26:21.017Z,47.67
2018-08-19T07:29:27.316Z,46.46
2018-08-19T07:32:32.237Z,46.45
2018-08-19T07:35:37.220Z,44.50
2018-08-19T07:38:42.157Z,43.71
2018-08-19T07:41:54.440Z,44.61
2018-08-19T07:45:03.257Z,44.59
2018-08-19T07:48:08.251Z,42.08
2018-08-19T07:51:13.256Z,41.56
2018-08-19T07:54:18.161Z,41.87
2018-08-19T07:57:24.589Z,40.76
2018-08-19T08:00:35.596Z,40.24
2018-08-19T08:03:40.525Z,38.41
2018-08-19T08:06:45.460Z,38.75
2018-08-19T08:09:50.402Z,37.52
2018-08-19T08:12:59.934Z,37.74
2018-08-19T08:16:04.922Z,38.02
2018-08-19T08:19:09.944Z,36.63
2018-08-19T08:22:15.008Z,35.54
2018-08-19T08:25:19.953Z,33.55
2018-08-19T08:28:24.920Z,35.09
2018-08-19T08:31:29.858Z,33.91
2018-08-19T08:34:35.085Z,34.87
2018-08-19T08:37:40.936Z,34.33
2018-08-19T08:40:46.005Z,34.33
2018-08-19T08:43:51.117Z,34.57
2018-08-19T08:46:59.243Z,33.03
2018-08-19T08:50:04.284Z,32.56
2018-08-19T08:53:09.265Z,32.14
2018-08-19T08:56:14.402Z,31.88
2018-08-19T08:59:19.364Z,31.36
2018-08-19T09:02:24.428Z,30.34
2018-08-19T09:05:29.450Z,28.90
2018-08-19T09:08:34.441Z,27.00
2018-08-19T09:11:39.416Z,29.66
2018-08-19T09:14:44.664Z,28.49
2018-08-19T09:17:49.838Z,29.17
2018-08-19T09:20:54.932Z,27.60
2018-08-19T09:23:59.940Z,29.68
2018-08-19T09:27:04.985Z,28.58
2018-08-19T09:30:13.494Z,28.82
2018-08-19T09:33:18.493Z,27.80
2018-08-19T09:36:23.456Z,29.55
2018-08-19T09:39:28.900Z,28.71
2018-08-19T09:42:33.899Z,27.31
2018-08-19T09:45:39.207Z,26.32
2018-08-19T09:48:44.169Z,26.84
2018-08-19T09:51:49.129Z,25.83
2018-08-19T09:54:57.185Z,26.44
2018-08-19T09:58:02.220Z,25.93
2018-08-19T10:01:12.993Z,24.98
2018-08-19T10:04:24.060Z,25.62
2018-08-19T10:07:29.120Z,26.03
2018-08-19T10:10:35.264Z,25.42
2018-08-19T10:13:40.269Z,26.27
2018-08-19T10:16:46.153Z,26.89
2018-08-19T10:19:51.101Z,25.97
2018-08-19T10:22:56.789Z,25.37
2018-08-19T10:26:01.717Z,25.75
2018-08-19T10:29:06.965Z,24.93
2018-08-19T10:32:11.986Z,25.99
2018-08-19T10:35:18.418Z,25.90
2018-08-19T10:38:23.369Z,25.91
2018-08-19T10:41:28.312Z,24.65
2018-08-19T10:44:33.236Z,23.97
2018-08-19T10:47:38.193Z,25.47
2018-08-19T10:50:43.130Z,24.50
2018-08-19T10:53:48.036Z,26.37
2018-08-19T10:56:53.572Z,25.44
2018-08-19T10:59:59.133Z,25.55
2018-08-19T11:03:23.091Z,25.20
2018-08-19T11:06:28.077Z,25.75
2018-08-19T11:09:43.340Z,24.62
2018-08-19T11:12:51.734Z,24.74
2018-08-19T11:15:57.685Z,24.23
2018-08-19T11:19:02.616Z,24.27
2018-08-19T11:22:07.497Z,24.58
2018-08-19T11:25:12.488Z,24.82
2018-08-19T11:28:23.604Z,25.74
2018-08-19T11:31:33.028Z,26.34
2018-08-19T11:34:37.874Z,27.08
2018-08-19T11:37:42.793Z,25.66
2018-08-19T11:40:47.953Z,25.66
2018-08-19T11:43:52.939Z,26.32
2018-08-19T11:46:57.861Z,25.24
2018-08-19T11:50:02.909Z,23.88
2018-08-19T11:53:07.864Z,25.80
2018-08-19T11:56:13.585Z,25.33
2018-08-19T11:59:18.540Z,25.17
2018-08-19T12:02:24.329Z,24.49
2018-08-19T12:05:29.258Z,25.77
2018-08-19T12:08:34.152Z,25.55
2018-08-19T12:11:40.159Z,26.33
2018-08-19T12:14:45.118Z,25.66
2018-08-19T12:17:50.020Z,26.54
2018-08-19T12:20:54.921Z,26.20
2018-08-19T12:24:14.375Z,25.19
2018-08-19T12:27:21.448Z,25.55
2018-08-19T12:30:30.344Z,26.49
2018-08-19T12:33:35.292Z,26.75
2018-08-19T12:36:40.245Z,27.13
2018-08-19T12:39:45.488Z,26.19
2018-08-19T12:42:53.536Z,26.45
2018-08-19T12:45:59.121Z,27.42
2018-08-19T12:49:04.249Z,26.23
2018-08-19T12:52:10.547Z,25.24
2018-08-19T12:55:15.901Z,25.93
2018-08-19T12:58:20.936Z,26.28
2018-08-19T13:01:25.884Z,27.11
2018-08-19T13:04:30.861Z,27.83
2018-08-19T13:07:35.822Z,27.81
2018-08-19T13:10:46.671Z,27.37
2018-08-19T13:13:51.635Z,27.41
2018-08-19T13:16:56.591Z,27.13
2018-08-19T13:20:05.324Z,27.11
2018-08-19T13:23:10.267Z,26.54
2018-08-19T13:26:15.190Z,26.68
2018-08-19T13:29:20.118Z,27.67
2018-08-19T13:32:25.064Z,26.67
2018-08-19T13:35:30.030Z,27.13
2018-08-19T13:38:37.174Z,26.76
2018-08-19T13:41:42.184Z,27.06
2018-08-19T13:44:47.116Z,27.00
2018-08-19T13:47:53.301Z,27.45
2018-08-19T13:50:58.257Z,26.33
2018-08-19T13:54:03.232Z,27.93
2018-08-19T13:57:08.186Z,27.30
2018-08-19T14:00:16.468Z,27.29
2018-08-19T14:03:21.496Z,27.77
2018-08-19T14:06:26.524Z,28.70
2018-08-19T14:09:31.498Z,27.35
2018-08-19T14:12:36.454Z,26.66
2018-08-19T14:15:41.433Z,28.46
2018-08-19T14:18:46.405Z,28.48
2018-08-19T14:21:51.403Z,27.00
2018-08-19T14:24:56.382Z,26.91
2018-08-19T14:28:01.365Z,28.11
2018-08-19T14:31:06.388Z,27.54
2018-08-19T14:34:11.380Z,27.78
2018-08-19T14:37:16.369Z,26.53
2018-08-19T14:40:21.486Z,27.48
2018-08-19T14:43:26.325Z,28.03
2018-08-19T14:46:32.365Z,27.40
2018-08-19T14:49:37.405Z,29.21
2018-08-19T14:52:42.449Z,27.67
2018-08-19T14:55:47.457Z,28.60
2018-08-19T14:58:52.436Z,27.79
2018-08-19T15:01:57.364Z,26.36
2018-08-19T15:05:02.353Z,28.61
2018-08-19T15:08:11.897Z,27.94
2018-08-19T15:11:16.832Z,27.13
2018-08-19T15:14:21.832Z,26.89
2018-08-19T15:17:26.812Z,27.24
2018-08-19T15:20:33.118Z,26.44
2018-08-19T15:23:38.058Z,27.40
2018-08-19T15:26:42.985Z,26.67
2018-08-19T15:29:50.533Z,25.96
2018-08-19T15:32:55.818Z,25.75
2018-08-19T15:36:00.378Z,26.59
2018-08-19T15:39:07.048Z,26.37
2018-08-19T15:42:12.008Z,27.29
2018-08-19T15:45:17.160Z,26.80
2018-08-19T15:48:22.141Z,27.20
2018-08-19T15:51:27.077Z,25.10
2018-08-19T15:54:32.034Z,25.22
2018-08-19T15:57:36.985Z,25.86
2018-08-19T16:00:41.985Z,25.82
2018-08-19T16:03:46.958Z,27.20
2018-08-19T16:06:53.445Z,26.60
2018-08-19T16:09:58.449Z,26.45
2018-08-19T16:13:05.573Z,27.32
2018-08-19T16:16:15.437Z,26.85
2018-08-19T16:19:20.533Z,27.89
2018-08-19T16:22:25.492Z,28.09
2018-08-19T16:25:30.517Z,28.89
2018-08-19T16:28:35.525Z,29.07
2018-08-19T16:31:40.781Z,29.52
2018-08-19T16:34:45.793Z,29.68
2018-08-19T16:37:50.824Z,29.39
2018-08-19T16:40:55.825Z,29.92
2018-08-19T16:44:08.973Z,30.58
2018-08-19T16:47:13.961Z,30.36
2018-08-19T16:50:19.038Z,30.64
2018-08-19T16:53:24.001Z,31.00
2018-08-19T16:56:28.962Z,30.71
2018-08-19T16:59:34.361Z,30.78
2018-08-19T17:02:39.342Z,31.29
2018-08-19T17:05:44.276Z,31.49
2018-08-19T17:08:49.269Z,31.90
2018-08-19T17:11:54.581Z,32.41
2018-08-19T17:14:59.540Z,32.26
2018-08-19T17:18:04.494Z,32.80
2018-08-19T17:21:09.489Z,31.98
2018-08-19T17:24:14.446Z,32.96
2018-08-19T17:27:19.377Z,32.48
2018-08-19T17:30:24.352Z,33.69
2018-08-19T17:33:30.521Z,33.80
2018-08-19T17:36:35.470Z,34.24
2018-08-19T17:39:40.540Z,35.93
2018-08-19T17:42:45.403Z,35.32
2018-08-19T17:45:51.153Z,35.92
2018-08-19T17:48:55.978Z,37.02
2018-08-19T17:52:01.013Z,38.12
2018-08-19T17:55:06.002Z,38.36
2018-08-19T17:58:10.922Z,39.18
2018-08-19T18:01:16.232Z,39.35
2018-08-19T18:04:21.548Z,38.71
2018-08-19T18:07:27.585Z,39.93
2018-08-19T18:10:32.537Z,39.76
2018-08-19T18:13:37.452Z,41.06
2018-08-19T18:16:42.361Z,42.35
2018-08-19T18:19:47.292Z,42.42
2018-08-19T18:22:53.656Z,42.31
2018-08-19T18:25:58.621Z,42.89
2018-08-19T18:29:03.636Z,44.44
2018-08-19T18:32:08.653Z,44.32
2018-08-19T18:35:13.645Z,44.50
2018-08-19T18:38:28.773Z,44.56
2018-08-19T18:41:35.201Z,46.59
2018-08-19T18:44:40.136Z,46.00
2018-08-19T18:47:51.399Z,46.36
2018-08-19T18:50:56.357Z,47.43
2018-08-19T18:54:01.595Z,48.17
2018-08-19T18:57:07.555Z,47.85
2018-08-19T19:00:12.497Z,48.29
2018-08-19T19:03:17.458Z,49.90
2018-08-19T19:06:22.421Z,49.38
2018-08-19T19:09:35.847Z,50.87
2018-08-19T19:12:40.754Z,49.94
2018-08-19T19:15:46.505Z,50.78
2018-08-19T19:18:51.801Z,52.83
2018-08-19T19:21:59.520Z,53.12
2018-08-19T19:25:04.474Z,52.38
2018-08-19T19:28:09.426Z,53.21
2018-08-19T19:31:15.640Z,53.85
2018-08-19T19:34:20.633Z,53.97
2018-08-19T19:37:25.530Z,54.15
2018-08-19T19:40:30.862Z,54.05
2018-08-19T19:43:35.768Z,53.13
2018-08-19T19:46:40.690Z,54.49
2018-08-19T19:49:51.390Z,54.42
2018-08-19T19:52:57.012Z,54.76
2018-08-19T19:56:07.585Z,55.08
2018-08-19T19:59:12.509Z,55.08
2018-08-19T20:02:22.393Z,55.05
2018-08-19T20:05:27.300Z,55.07
2018-08-19T20:08:32.213Z,55.45
2018-08-19T20:11:37.990Z,55.35
2018-08-19T20:14:47.500Z,56.17
2018-08-19T20:17:52.411Z,56.89
2018-08-19T20:20:57.366Z,57.17
2018-08-19T20:24:02.600Z,57.56
2018-08-19T20:27:07.924Z,56.94
2018-08-19T20:30:12.860Z,57.61
2018-08-19T20:33:25.217Z,58.14
2018-08-19T20:36:30.149Z,57.61
2018-08-19T20:39:35.070Z,57.60
2018-08-19T20:42:40.020Z,58.65
2018-08-19T20:45:45.432Z,59.07
2018-08-19T20:48:50.341Z,58.92
2018-08-19T20:51:55.804Z,59.57
2018-08-19T20:55:00.704Z,59.06
2018-08-19T20:58:05.668Z,59.65
2018-08-19T21:01:41.937Z,59.45
2018-08-19T21:04:46.889Z,60.66
2018-08-19T21:07:56.940Z,59.83
2018-08-19T21:11:01.869Z,61.38
2018-08-19T21:14:06.805Z,60.67
2018-08-19T21:17:11.744Z,61.28
2018-08-19T21:20:16.764Z,61.78
2018-08-19T21:23:21.684Z,60.60
2018-08-19T21:26:26.610Z,61.92
2018-08-19T21:29:32.017Z,60.97
2018-08-19T21:32:36.937Z,61.84
2018-08-19T21:35:47.768Z,62.16
2018-08-19T21:38:52.705Z,62.78
2018-08-19T21:41:57.687Z,62.79
2018-08-19T21:45:02.707Z,62.11
2018-08-19T21:48:11.650Z,62.55
2018-08-19T21:51:16.580Z,63.02
2018-08-19T21:54:21.508Z,63.48
2018-08-19T21:57:26.448Z,64.18
2018-08-19T22:04:39.736Z,64.37
2018-08-19T22:07:44.665Z,63.62
2018-08-19T22:10:49.616Z,63.54
2018-08-19T22:13:54.516Z,64.20
2018-08-19T22:17:05.269Z,64.05
2018-08-19T22:20:10.180Z,64.85
2018-08-19T22:23:15.069Z,64.75
2018-08-19T22:26:20.748Z,65.85
2018-08-19T22:29:25.678Z,65.20
2018-08-19T22:32:32.541Z,65.21
2018-08-19T22:35:37.445Z,66.03
2018-08-19T22:38:50.224Z,65.11
2018-08-19T22:41:55.135Z,64.74
2018-08-19T22:45:00.047Z,65.78
2018-08-19T22:48:13.004Z,65.36
2018-08-19T22:51:17.958Z,65.98
2018-08-19T22:54:22.857Z,66.29
2018-08-19T22:57:28.021Z,66.20
2018-08-19T23:00:32.996Z,65.83
2018-08-19T23:03:37.924Z,66.03
2018-08-19T23:06:42.872Z,65.50
2018-08-19T23:09:47.826Z,66.63
2018-08-19T23:12:52.739Z,66.56
2018-08-19T23:15:57.677Z,66.17
2018-08-19T23:19:02.589Z,66.49
2018-08-19T23:22:07.553Z,66.96
2018-08-19T23:25:12.492Z,67.33
2018-08-19T23:28:17.679Z,66.64
2018-08-19T23:31:22.629Z,66.99
2018-08-19T23:34:27.738Z,66.45
2018-08-19T23:37:32.672Z,67.16
2018-08-19T23:40:37.649Z,66.96
2018-08-19T23:43:42.574Z,67.14
2018-08-19T23:46:47.512Z,67.81
2018-08-19T23:49:52.420Z,67.39
2018-08-19T23:52:57.352Z,67.38
2018-08-19T23:56:02.321Z,68.05
2018-08-19T23:59:07.244Z,68.12
